.
WxDataArchive / Data Records for 2006-08-08
2006-08-07 August 2006 2006-08-09

Data Records for Tuesday, 08 August 2006

Time	Temp	Chill	HIndex	Humid	Dewpt	 Wind 	HiWind	WindDir	Rain 	Barom 
-----	----	-----	------	-----	-----	------	------	-------	-----	----- 
00:00	69.6	69.6	69.6	69	59.0	0	1	315	0.00	30.094 
00:05	69.6	69.6	69.6	70	59.4	0	1	315	0.00	30.094 
00:10	69.4	69.4	69.4	69	58.8	0	2	270	0.00	30.094 
00:15	69.3	69.3	69.3	69	58.7	0	1	270	0.00	30.095 
00:20	69.3	69.3	69.3	69	58.7	0	1	270	0.00	30.095 
00:25	69.1	69.1	69.1	69	58.5	0	1	270	0.00	30.095 
00:30	68.8	68.8	68.8	69	58.2	0	1	270	0.00	30.098 
00:35	68.6	68.6	68.6	69	58.0	0	1	270	0.00	30.098 
00:40	68.4	68.4	68.4	69	57.8	0	1	270	0.00	30.098 
00:45	68.3	68.3	68.3	70	58.1	0	0	---	0.00	30.101 
00:50	68.1	68.1	68.1	70	57.9	0	1	270	0.00	30.101 
00:55	67.9	67.9	67.9	70	57.7	0	1	270	0.00	30.101 
01:00	67.8	67.8	67.8	71	58.0	0	0	---	0.00	30.099 
01:05	67.6	67.6	67.6	71	57.9	0	1	270	0.00	30.099 
01:10	67.4	67.4	67.4	72	58.1	0	0	---	0.00	30.099 
01:15	67.3	67.3	67.3	72	58.0	0	1	270	0.00	30.102 
01:20	67.1	67.1	67.1	72	57.8	0	1	270	0.00	30.102 
01:25	67.1	67.1	67.1	72	57.8	0	1	270	0.00	30.102 
01:30	66.9	66.9	66.9	73	58.0	0	1	270	0.00	30.096 
01:35	66.8	66.8	66.8	73	57.9	0	0	---	0.00	30.096 
01:40	66.4	66.4	66.4	74	57.9	0	0	---	0.00	30.096 
01:45	66.3	66.3	66.3	74	57.8	0	1	270	0.00	30.097 
01:50	66.1	66.1	66.1	74	57.6	0	0	---	0.00	30.097 
01:55	66.0	66.0	66.0	75	57.8	0	0	---	0.00	30.097 
02:00	65.8	65.8	65.8	75	57.6	0	1	270	0.00	30.096 
02:05	65.6	65.6	65.6	76	57.8	0	0	---	0.00	30.096 
02:10	65.6	65.6	65.6	76	57.8	0	0	---	0.00	30.096 
02:15	65.5	65.5	65.5	76	57.7	0	0	---	0.00	30.092 
02:20	65.3	65.3	65.3	77	57.9	0	0	---	0.00	30.092 
02:25	65.2	65.2	65.2	77	57.8	0	0	---	0.00	30.092 
02:30	65.0	65.0	65.0	77	57.6	0	0	---	0.00	30.094 
02:35	64.8	64.8	64.8	78	57.8	0	0	---	0.00	30.094 
02:40	64.8	64.8	64.8	78	57.8	0	0	---	0.00	30.094 
02:45	64.8	64.8	64.8	78	57.8	0	1	270	0.00	30.090 
02:50	64.8	64.8	64.8	78	57.8	0	0	---	0.00	30.090 
02:55	64.8	64.8	64.8	78	57.8	0	2	270	0.00	30.090 
03:00	65.0	65.0	65.0	78	58.0	0	1	270	0.00	30.093 
03:05	65.0	65.0	65.0	77	57.6	0	1	270	0.00	30.093 
03:10	65.0	65.0	65.0	77	57.6	0	1	270	0.00	30.093 
03:15	65.2	65.2	65.2	77	57.8	0	1	270	0.00	30.095 
03:20	65.2	65.2	65.2	77	57.8	0	1	270	0.00	30.095 
03:25	65.2	65.2	65.2	77	57.8	0	1	270	0.00	30.095 
03:30	65.0	65.0	65.0	77	57.6	0	1	248	0.00	30.092 
03:35	65.0	65.0	65.0	78	58.0	0	3	45	0.00	30.092 
03:40	65.0	65.0	65.0	78	58.0	0	3	45	0.00	30.092 
03:45	65.0	65.0	65.0	78	58.0	0	2	22	0.00	30.096 
03:50	65.0	65.0	65.0	78	58.0	0	1	22	0.00	30.096 
03:55	65.0	65.0	65.0	78	58.0	0	2	338	0.00	30.096 
04:00	64.8	64.8	64.8	79	58.1	0	4	338	0.00	30.086 
04:05	64.7	64.7	64.7	79	58.0	0	2	90	0.00	30.086 
04:10	64.7	64.7	64.7	79	58.0	0	1	90	0.00	30.086 
04:15	64.5	64.5	64.5	80	58.2	0	0	---	0.00	30.094 
04:20	64.3	64.3	64.3	80	58.0	0	1	90	0.00	30.094 
04:25	64.2	64.2	64.2	80	57.9	0	0	---	0.00	30.094 
04:30	64.0	64.0	64.0	80	57.7	0	2	90	0.00	30.097 
04:35	63.9	63.9	63.9	81	57.9	0	1	90	0.00	30.097 
04:40	63.7	63.7	63.7	81	57.8	0	0	---	0.00	30.097 
04:45	63.5	63.5	63.5	81	57.6	0	0	---	0.00	30.098 
04:50	63.5	63.5	63.5	81	57.6	0	1	90	0.00	30.098 
04:55	63.4	63.4	63.4	81	57.5	0	1	90	0.00	30.098 
05:00	63.2	63.2	63.2	81	57.3	0	1	90	0.00	30.096 
05:05	63.2	63.2	63.2	81	57.3	0	1	90	0.00	30.096 
05:10	63.1	63.1	63.1	81	57.2	0	1	90	0.00	30.096 
05:15	63.2	63.2	63.2	81	57.3	0	2	90	0.00	30.101 
05:20	63.2	63.2	63.2	81	57.3	0	2	90	0.00	30.101 
05:25	63.2	63.2	63.2	81	57.3	0	1	90	0.00	30.101 
05:30	63.2	63.2	63.2	81	57.3	0	1	90	0.00	30.100 
05:35	63.2	63.2	63.2	81	57.3	0	1	90	0.00	30.100 
05:40	63.1	63.1	63.1	81	57.2	0	2	112	0.00	30.100 
05:45	63.1	63.1	63.1	81	57.2	0	1	112	0.00	30.113 
05:50	63.1	63.1	63.1	81	57.2	0	1	112	0.00	30.113 
05:55	63.1	63.1	63.1	81	57.2	0	1	112	0.00	30.113 
06:00	63.1	63.1	63.1	81	57.2	0	2	112	0.00	30.114 
06:05	63.1	63.1	63.1	81	57.2	0	2	112	0.00	30.114 
06:10	63.1	63.1	63.1	81	57.2	0	1	112	0.00	30.114 
06:15	63.1	63.1	63.1	81	57.2	0	1	112	0.00	30.118 
06:20	63.2	63.2	63.2	81	57.3	1	3	68	0.00	30.118 
06:25	63.2	63.2	63.2	81	57.3	0	1	68	0.00	30.118 
06:30	63.1	63.1	63.1	81	57.2	0	1	68	0.00	30.121 
06:35	63.1	63.1	63.1	81	57.2	0	2	90	0.00	30.121 
06:40	63.1	63.1	63.1	81	57.2	0	2	68	0.00	30.121 
06:45	62.9	62.9	62.9	82	57.3	0	1	68	0.00	30.124 
06:50	62.7	62.7	62.7	82	57.1	0	1	68	0.00	30.124 
06:55	62.6	62.6	62.6	83	57.4	0	2	68	0.00	30.124 
07:00	62.6	62.6	62.6	83	57.4	0	1	68	0.00	30.125 
07:05	62.6	62.6	62.6	83	57.4	0	1	68	0.00	30.125 
07:10	62.4	62.4	62.4	84	57.5	0	0	---	0.00	30.125 
07:15	62.4	62.4	62.4	83	57.2	0	1	68	0.00	30.133 
07:20	62.6	62.6	62.6	84	57.7	0	2	68	0.00	30.133 
07:25	62.6	62.6	62.6	84	57.7	0	1	68	0.00	30.133 
07:30	62.7	62.7	62.7	83	57.5	0	2	68	0.00	30.132 
07:35	62.9	62.9	62.9	83	57.7	0	1	68	0.00	30.132 
07:40	62.9	62.9	62.9	84	58.0	0	0	---	0.00	30.132 
07:45	63.1	63.1	63.1	83	57.8	0	3	68	0.00	30.133 
07:50	63.4	63.4	63.4	84	58.5	0	0	---	0.00	30.133 
07:55	64.0	64.0	64.0	82	58.4	1	3	112	0.00	30.133 
08:00	64.8	64.8	64.8	81	58.8	0	1	135	0.00	30.131 
08:05	65.5	65.5	65.5	79	58.8	1	3	135	0.00	30.131 
08:10	65.6	65.6	65.6	79	58.9	0	3	135	0.00	30.131 
08:15	66.1	66.1	66.1	78	59.0	0	3	45	0.00	30.134 
08:20	66.8	66.8	66.8	77	59.3	2	5	90	0.00	30.134 
08:25	67.3	67.3	67.3	76	59.5	2	4	90	0.00	30.134 
08:30	67.9	67.9	67.9	76	60.0	1	3	112	0.00	30.131 
08:35	67.9	67.9	67.9	76	60.0	1	4	68	0.00	30.131 
08:40	67.9	67.9	67.9	78	60.8	1	3	68	0.00	30.131 
08:45	68.4	68.4	68.4	77	60.9	1	3	45	0.00	30.139 
08:50	68.8	68.8	68.8	75	60.5	2	4	112	0.00	30.139 
08:55	68.8	68.8	68.8	76	60.9	1	3	90	0.00	30.139 
09:00	68.8	68.8	68.8	77	61.3	1	2	90	0.00	30.147 
09:05	68.9	68.9	68.9	77	61.4	1	3	68	0.00	30.147 
09:10	69.1	69.1	69.1	76	61.2	0	3	68	0.00	30.147 
09:15	69.4	69.4	69.4	76	61.5	2	6	68	0.00	30.149 
09:20	70.3	70.3	70.3	76	62.4	1	3	90	0.00	30.149 
09:25	71.1	71.1	71.1	74	62.4	1	4	90	0.00	30.149 
09:30	71.6	71.6	71.6	72	62.1	2	6	45	0.00	30.150 
09:35	72.0	72.0	72.0	71	62.1	2	4	90	0.00	30.150 
09:40	72.5	72.5	72.5	71	62.5	1	5	68	0.00	30.150 
09:45	72.8	72.8	72.8	73	63.6	2	4	90	0.00	30.159 
09:50	73.2	73.2	73.2	69	62.4	2	6	90	0.00	30.159 
09:55	73.3	73.3	73.3	71	63.3	2	4	90	0.00	30.159 
10:00	73.7	73.7	73.7	69	62.9	2	7	90	0.00	30.152 
10:05	73.7	73.7	73.7	70	63.3	3	6	90	0.00	30.152 
10:10	73.7	73.7	73.7	70	63.3	3	6	90	0.00	30.152 
10:15	73.7	73.7	73.7	70	63.3	3	5	112	0.00	30.162 
10:20	73.9	73.9	73.9	71	63.9	2	4	90	0.00	30.162 
10:25	74.2	74.2	74.2	70	63.8	2	5	68	0.00	30.162 
10:30	74.6	74.6	74.6	69	63.7	2	5	90	0.00	30.162 
10:35	74.9	74.9	74.9	68	63.6	2	6	90	0.00	30.162 
10:40	74.6	74.6	74.6	69	63.7	2	5	90	0.00	30.162 
10:45	73.9	73.9	73.9	70	63.5	3	6	90	0.00	30.163 
10:50	73.9	73.9	73.9	69	63.1	3	6	90	0.00	30.163 
10:55	74.2	74.2	74.2	68	62.9	3	7	90	0.00	30.163 
11:00	74.4	74.4	74.4	70	64.0	3	7	90	0.00	30.163 
11:05	75.1	75.1	76.9	69	64.2	3	6	90	0.00	30.163 
11:10	75.4	75.4	77.1	69	64.5	3	5	90	0.00	30.163 
11:15	76.1	76.1	77.9	66	63.9	3	5	112	0.00	30.160 
11:20	76.5	76.5	78.3	65	63.8	3	9	90	0.00	30.160 
11:25	76.8	76.8	78.6	64	63.7	3	7	90	0.00	30.160 
11:30	76.8	76.8	78.6	64	63.7	3	10	112	0.00	30.161 
11:35	77.0	77.0	78.8	66	64.8	4	10	90	0.00	30.161 
11:40	77.2	77.2	79.0	64	64.1	3	5	90	0.00	30.161 
11:45	77.4	77.4	79.2	64	64.2	3	7	90	0.00	30.157 
11:50	77.6	77.6	79.5	67	65.8	2	6	112	0.00	30.157 
11:55	77.4	77.4	79.2	65	64.7	3	6	90	0.00	30.157 
12:00	76.8	76.8	78.6	66	64.6	2	6	90	0.00	30.159 
12:05	76.5	76.5	78.3	67	64.7	2	6	90	0.00	30.159 
12:10	77.0	77.0	78.8	65	64.3	3	6	68	0.00	30.159 
12:15	77.0	77.0	78.8	65	64.3	3	7	90	0.00	30.157 
12:20	77.6	77.6	79.4	64	64.4	2	5	112	0.00	30.157 
12:25	77.9	77.9	79.7	63	64.3	2	5	90	0.00	30.157 
12:30	78.3	78.3	80.2	64	65.1	1	4	112	0.00	30.151 
12:35	77.9	77.9	79.6	61	63.3	3	7	90	0.00	30.151 
12:40	77.9	77.9	79.7	63	64.3	2	4	112	0.00	30.151 
12:45	78.5	78.5	80.2	61	63.9	2	4	112	0.00	30.148 
12:50	78.5	78.5	80.3	62	64.4	2	6	112	0.00	30.148 
12:55	78.1	78.1	79.9	63	64.5	3	6	90	0.00	30.148 
13:00	78.3	78.3	79.9	59	62.8	2	6	90	0.00	30.146 
13:05	78.6	78.6	80.5	64	65.4	1	4	68	0.00	30.146 
13:10	78.6	78.6	80.3	61	64.0	2	5	90	0.00	30.146 
13:15	78.6	78.6	80.3	61	64.0	1	4	90	0.00	30.145 
13:20	79.2	79.2	80.9	60	64.1	2	6	112	0.00	30.145 
13:25	79.0	79.0	80.7	60	63.9	1	4	90	0.00	30.145 
13:30	78.5	78.5	80.1	59	63.0	3	6	90	0.00	30.141 
13:35	78.8	78.8	80.3	58	62.8	2	4	90	0.00	30.141 
13:40	79.9	79.9	81.3	56	62.8	3	6	90	0.00	30.141 
13:45	79.9	79.9	81.3	56	62.8	2	5	90	0.00	30.141 
13:50	80.3	80.3	81.3	52	61.0	1	4	90	0.00	30.141 
13:55	80.9	80.9	82.5	57	64.2	2	7	112	0.00	30.141 
14:00	80.7	80.7	82.0	55	63.0	2	6	90	0.00	30.137 
14:05	80.5	80.5	81.9	56	63.3	2	6	90	0.00	30.137 
14:10	80.3	80.3	81.7	56	63.1	2	7	90	0.00	30.137 
14:15	80.5	80.5	81.4	51	60.7	3	6	90	0.00	30.137 
14:20	81.1	81.1	82.1	52	61.8	0	2	90	0.00	30.137 
14:25	81.6	81.6	82.9	54	63.3	1	4	22	0.00	30.137 
14:30	81.1	81.1	82.1	52	61.8	3	6	112	0.00	30.129 
14:35	80.5	80.5	81.6	53	61.8	3	6	90	0.00	30.129 
14:40	80.7	80.7	81.4	50	60.3	1	4	90	0.00	30.129 
14:45	80.5	80.5	81.4	51	60.7	2	4	90	0.00	30.130 
14:50	80.9	80.9	81.8	51	61.0	3	7	112	0.00	30.130 
14:55	80.9	80.9	81.6	50	60.5	2	4	112	0.00	30.130 
15:00	80.5	80.5	81.3	50	60.1	2	5	112	0.00	30.129 
15:05	80.3	80.3	81.3	52	61.0	2	6	112	0.00	30.129 
15:10	80.7	80.7	81.4	50	60.3	2	5	90	0.00	30.129 
15:15	80.3	80.3	81.4	53	61.6	3	5	90	0.00	30.127 
15:20	79.9	79.9	80.4	47	57.8	2	6	90	0.00	30.127 
15:25	79.9	79.9	80.7	50	59.6	2	3	90	0.00	30.127 
15:30	80.3	80.3	81.3	52	61.0	1	5	90	0.00	30.128 
15:35	80.3	80.3	81.3	52	61.0	1	4	90	0.00	30.128 
15:40	80.5	80.5	81.4	51	60.7	2	4	90	0.00	30.128 
15:45	80.5	80.5	81.3	50	60.1	2	5	112	0.00	30.116 
15:50	80.7	80.7	81.3	49	59.7	2	5	112	0.00	30.116 
15:55	80.7	80.7	81.3	49	59.7	2	4	112	0.00	30.116 
16:00	80.9	80.9	81.4	48	59.3	2	5	112	0.00	30.125 
16:05	80.9	80.9	81.5	49	59.9	1	4	90	0.00	30.125 
16:10	80.5	80.5	81.3	50	60.1	2	4	90	0.00	30.125 
16:15	79.9	79.9	80.6	49	59.0	2	3	90	0.00	30.126 
16:20	79.6	79.6	80.4	49	58.7	2	4	90	0.00	30.126 
16:25	79.6	79.6	80.5	50	59.3	1	2	90	0.00	30.126 
16:30	79.6	79.6	80.4	49	58.7	1	2	90	0.00	30.124 
16:35	79.9	79.9	80.7	50	59.6	1	3	90	0.00	30.124 
16:40	80.1	80.1	81.0	51	60.3	1	4	90	0.00	30.124 
16:45	80.7	80.7	81.2	48	59.2	0	2	90	0.00	30.117 
16:50	81.1	81.1	81.5	47	58.9	2	5	112	0.00	30.117 
16:55	80.9	80.9	81.6	50	60.5	2	4	90	0.00	30.117 
17:00	80.5	80.5	81.2	49	59.6	2	5	112	0.00	30.116 
17:05	80.1	80.1	80.8	49	59.2	1	3	90	0.00	30.116 
17:10	79.6	79.6	80.5	50	59.3	2	4	112	0.00	30.116 
17:15	79.6	79.6	80.5	50	59.3	1	3	90	0.00	30.118 
17:20	79.9	79.9	80.7	50	59.6	1	4	90	0.00	30.118 
17:25	79.9	79.9	81.0	53	61.2	2	6	112	0.00	30.118 
17:30	79.8	79.8	80.7	51	60.0	3	5	90	0.00	30.114 
17:35	79.6	79.6	80.5	51	59.9	1	4	90	0.00	30.114 
17:40	79.6	79.6	80.5	50	59.3	1	3	68	0.00	30.114 
17:45	79.8	79.8	80.7	51	60.0	1	4	112	0.00	30.113 
17:50	79.8	79.8	80.6	50	59.5	2	4	90	0.00	30.113 
17:55	79.8	79.8	80.6	50	59.5	1	4	90	0.00	30.113 
18:00	79.8	79.8	80.6	50	59.5	1	3	68	0.00	30.113 
18:05	79.9	79.9	80.5	48	58.4	1	5	135	0.00	30.113 
18:10	79.8	79.8	80.4	47	57.8	1	4	90	0.00	30.113 
18:15	79.4	79.4	80.5	52	60.2	0	3	68	0.00	30.104 
18:20	79.2	79.2	80.1	50	58.9	1	4	90	0.00	30.104 
18:25	79.2	79.2	80.1	49	58.4	1	3	68	0.00	30.104 
18:30	79.2	79.2	80.1	50	58.9	1	2	68	0.00	30.103 
18:35	79.0	79.0	80.0	50	58.7	1	4	68	0.00	30.103 
18:40	78.8	78.8	79.8	50	58.6	1	3	90	0.00	30.103 
18:45	78.8	78.8	79.9	51	59.1	3	6	90	0.00	30.102 
18:50	78.6	78.6	79.8	53	60.0	2	5	90	0.00	30.102 
18:55	78.3	78.3	79.7	54	60.3	2	5	112	0.00	30.102 
19:00	78.1	78.1	79.5	55	60.6	1	3	68	0.00	30.099 
19:05	78.1	78.1	79.5	55	60.6	1	2	90	0.00	30.099 
19:10	77.9	77.9	79.4	55	60.4	1	4	112	0.00	30.099 
19:15	77.7	77.7	79.3	57	61.2	1	2	112	0.00	30.101 
19:20	77.6	77.6	79.2	56	60.6	1	3	112	0.00	30.101 
19:25	77.4	77.4	79.0	55	59.9	2	4	90	0.00	30.101 
19:30	77.4	77.4	79.0	56	60.5	2	4	90	0.00	30.101 
19:35	77.2	77.2	78.9	56	60.3	2	3	90	0.00	30.101 
19:40	77.0	77.0	78.8	58	61.1	1	3	112	0.00	30.101 
19:45	76.8	76.8	78.6	58	60.9	2	4	112	0.00	30.101 
19:50	76.8	76.8	78.6	58	60.9	1	3	90	0.00	30.101 
19:55	76.5	76.5	78.4	60	61.6	1	3	90	0.00	30.101 
20:00	76.5	76.5	78.4	60	61.6	1	3	90	0.00	30.098 
20:05	76.3	76.3	78.2	60	61.4	1	3	90	0.00	30.098 
20:10	76.1	76.1	78.0	62	62.1	0	1	90	0.00	30.098 
20:15	76.0	76.0	78.0	61	61.6	1	2	90	0.00	30.099 
20:20	75.8	75.8	77.8	61	61.4	0	1	90	0.00	30.099 
20:25	75.6	75.6	77.7	61	61.2	0	2	90	0.00	30.099 
20:30	75.4	75.4	77.6	61	61.0	1	3	68	0.00	30.098 
20:35	75.3	75.3	77.5	62	61.4	0	1	68	0.00	30.098 
20:40	75.1	75.1	77.3	63	61.6	0	1	68	0.00	30.098 
20:45	74.9	74.9	74.9	63	61.4	0	1	68	0.00	30.101 
20:50	74.6	74.6	74.6	64	61.6	0	2	68	0.00	30.101 
20:55	74.2	74.2	74.2	65	61.7	0	2	68	0.00	30.101 
21:00	73.9	73.9	73.9	65	61.4	0	1	68	0.00	30.100 
21:05	73.5	73.5	73.5	65	61.0	0	1	68	0.00	30.100 
21:10	73.2	73.2	73.2	65	60.7	0	0	---	0.00	30.100 
21:15	72.8	72.8	72.8	66	60.8	0	1	68	0.00	30.100 
21:20	72.5	72.5	72.5	66	60.5	0	2	68	0.00	30.100 
21:25	72.3	72.3	72.3	66	60.3	0	2	68	0.00	30.100 
21:30	72.0	72.0	72.0	66	60.0	0	1	68	0.00	30.103 
21:35	71.8	71.8	71.8	67	60.2	0	1	68	0.00	30.103 
21:40	71.5	71.5	71.5	67	60.0	0	1	68	0.00	30.103 
21:45	71.1	71.1	71.1	68	60.0	0	1	68	0.00	30.111 
21:50	70.9	70.9	70.9	68	59.8	0	1	68	0.00	30.111 
21:55	70.6	70.6	70.6	68	59.5	0	0	---	0.00	30.111 
22:00	70.3	70.3	70.3	69	59.6	0	0	---	0.00	30.105 
22:05	69.8	69.8	69.8	69	59.2	0	0	---	0.00	30.105 
22:10	69.6	69.6	69.6	71	59.8	0	1	68	0.00	30.105 
22:15	69.6	69.6	69.6	69	59.0	0	2	68	0.00	30.110 
22:20	69.8	69.8	69.8	69	59.2	1	2	68	0.00	30.110 
22:25	69.8	69.8	69.8	69	59.2	0	2	68	0.00	30.110 
22:30	69.8	69.8	69.8	69	59.2	0	1	68	0.00	30.109 
22:35	69.6	69.6	69.6	69	59.0	0	2	68	0.00	30.109 
22:40	69.6	69.6	69.6	69	59.0	0	2	68	0.00	30.109 
22:45	69.4	69.4	69.4	69	58.8	0	1	68	0.00	30.111 
22:50	69.3	69.3	69.3	70	59.1	0	1	68	0.00	30.111 
22:55	69.1	69.1	69.1	70	58.9	0	0	---	0.00	30.111 
23:00	68.8	68.8	68.8	71	59.0	0	0	---	0.00	30.111 
23:05	68.4	68.4	68.4	72	59.0	0	0	---	0.00	30.111 
23:10	68.1	68.1	68.1	73	59.1	0	0	---	0.00	30.111 
23:15	67.9	67.9	67.9	73	58.9	0	1	68	0.00	30.106 
23:20	67.8	67.8	67.8	73	58.8	0	1	68	0.00	30.106 
23:25	67.6	67.6	67.6	74	59.0	0	0	---	0.00	30.106 
23:30	67.4	67.4	67.4	74	58.8	0	0	---	0.00	30.099 
23:35	67.1	67.1	67.1	74	58.5	0	0	---	0.00	30.099 
23:40	66.9	66.9	66.9	75	58.7	0	0	---	0.00	30.099 
23:45	66.8	66.8	66.8	74	58.2	0	1	68	0.00	30.101 
23:50	67.1	67.1	67.1	74	58.5	0	1	68	0.00	30.101 
23:55	67.1	67.1	67.1	74	58.5	0	0	---	0.00	30.101 

CoCoRaHS
IN-AL-39
A2 Web Hosting
Creative Commons License
GoDaddy
Look for:

loaded 2017-10-19 12:14:48 • last modified 2010-11-18 10:43:29
Privacy PolicyDisclaimer
• wx.awcolley.com is powered by PmWiki v.2002016 •
• all content (unless otherwise noted) © 2017 A W Colley